sensor_id;sensor_type;location;lat;lon;timestamp;P1;durP1;ratioP1;P2;durP2;ratioP2
17153;SDS011;8692;52.164;7.558;2024-03-02T00:01:51;4.30;;;2.93;;
17153;SDS011;8692;52.164;7.558;2024-03-02T00:04:19;4.20;;;3.30;;
17153;SDS011;8692;52.164;7.558;2024-03-02T00:06:47;4.00;;;3.17;;
17153;SDS011;8692;52.164;7.558;2024-03-02T00:09:15;3.67;;;2.83;;
17153;SDS011;8692;52.164;7.558;2024-03-02T00:11:43;4.87;;;2.90;;
17153;SDS011;8692;52.164;7.558;2024-03-02T00:14:12;2.80;;;2.33;;
17153;SDS011;8692;52.164;7.558;2024-03-02T00:16:40;3.17;;;2.87;;
17153;SDS011;8692;52.164;7.558;2024-03-02T00:19:09;3.43;;;3.13;;
17153;SDS011;8692;52.164;7.558;2024-03-02T00:21:37;4.87;;;2.70;;
17153;SDS011;8692;52.164;7.558;2024-03-02T00:24:06;4.07;;;2.90;;
17153;SDS011;8692;52.164;7.558;2024-03-02T00:26:45;3.67;;;3.03;;
17153;SDS011;8692;52.164;7.558;2024-03-02T00:29:15;3.80;;;3.50;;
17153;SDS011;8692;52.164;7.558;2024-03-02T00:31:45;3.40;;;3.10;;
17153;SDS011;8692;52.164;7.558;2024-03-02T00:34:15;3.00;;;2.70;;
17153;SDS011;8692;52.164;7.558;2024-03-02T00:36:44;3.03;;;2.73;;
17153;SDS011;8692;52.164;7.558;2024-03-02T00:39:13;3.20;;;2.80;;
17153;SDS011;8692;52.164;7.558;2024-03-02T00:41:44;3.63;;;3.10;;
17153;SDS011;8692;52.164;7.558;2024-03-02T00:44:12;2.97;;;2.67;;
17153;SDS011;8692;52.164;7.558;2024-03-02T00:46:43;3.37;;;3.00;;
17153;SDS011;8692;52.164;7.558;2024-03-02T00:49:12;3.30;;;2.90;;
17153;SDS011;8692;52.164;7.558;2024-03-02T00:51:46;3.70;;;2.60;;
17153;SDS011;8692;52.164;7.558;2024-03-02T00:54:15;3.10;;;2.80;;
17153;SDS011;8692;52.164;7.558;2024-03-02T00:56:47;3.77;;;2.60;;
17153;SDS011;8692;52.164;7.558;2024-03-02T00:59:15;3.47;;;2.80;;
17153;SDS011;8692;52.164;7.558;2024-03-02T01:01:45;4.13;;;3.40;;
17153;SDS011;8692;52.164;7.558;2024-03-02T01:04:13;3.60;;;3.10;;
17153;SDS011;8692;52.164;7.558;2024-03-02T01:06:41;4.57;;;3.00;;
17153;SDS011;8692;52.164;7.558;2024-03-02T01:09:09;3.60;;;2.90;;
17153;SDS011;8692;52.164;7.558;2024-03-02T01:11:38;4.73;;;2.77;;
17153;SDS011;8692;52.164;7.558;2024-03-02T01:14:07;3.10;;;2.80;;
17153;SDS011;8692;52.164;7.558;2024-03-02T01:16:35;4.53;;;3.33;;
17153;SDS011;8692;52.164;7.558;2024-03-02T01:19:04;2.63;;;2.43;;
17153;SDS011;8692;52.164;7.558;2024-03-02T01:21:32;2.70;;;2.50;;
17153;SDS011;8692;52.164;7.558;2024-03-02T01:24:01;3.00;;;2.70;;
17153;SDS011;8692;52.164;7.558;2024-03-02T01:26:30;4.80;;;3.47;;
17153;SDS011;8692;52.164;7.558;2024-03-02T01:28:58;4.03;;;2.90;;
17153;SDS011;8692;52.164;7.558;2024-03-02T01:31:26;3.40;;;3.00;;
17153;SDS011;8692;52.164;7.558;2024-03-02T01:33:54;3.17;;;2.80;;
17153;SDS011;8692;52.164;7.558;2024-03-02T01:36:23;3.23;;;2.93;;
17153;SDS011;8692;52.164;7.558;2024-03-02T01:38:51;3.80;;;3.10;;
17153;SDS011;8692;52.164;7.558;2024-03-02T01:41:19;3.47;;;3.07;;
17153;SDS011;8692;52.164;7.558;2024-03-02T01:43:47;3.27;;;2.90;;
17153;SDS011;8692;52.164;7.558;2024-03-02T01:46:16;3.03;;;2.67;;
17153;SDS011;8692;52.164;7.558;2024-03-02T01:48:44;3.70;;;2.50;;
17153;SDS011;8692;52.164;7.558;2024-03-02T01:51:12;3.53;;;3.23;;
17153;SDS011;8692;52.164;7.558;2024-03-02T01:53:41;3.20;;;2.90;;
17153;SDS011;8692;52.164;7.558;2024-03-02T01:56:09;3.93;;;3.23;;
17153;SDS011;8692;52.164;7.558;2024-03-02T01:58:37;3.53;;;3.10;;
17153;SDS011;8692;52.164;7.558;2024-03-02T02:01:05;4.00;;;3.50;;
17153;SDS011;8692;52.164;7.558;2024-03-02T02:03:34;4.93;;;3.20;;
17153;SDS011;8692;52.164;7.558;2024-03-02T02:06:02;3.37;;;2.93;;
17153;SDS011;8692;52.164;7.558;2024-03-02T02:08:30;4.57;;;3.17;;
17153;SDS011;8692;52.164;7.558;2024-03-02T02:11:00;5.63;;;3.07;;
17153;SDS011;8692;52.164;7.558;2024-03-02T02:13:28;3.50;;;3.20;;
17153;SDS011;8692;52.164;7.558;2024-03-02T02:16:03;2.80;;;2.60;;
17153;SDS011;8692;52.164;7.558;2024-03-02T02:18:32;4.17;;;3.10;;
17153;SDS011;8692;52.164;7.558;2024-03-02T02:21:00;3.87;;;2.80;;
17153;SDS011;8692;52.164;7.558;2024-03-02T02:23:29;4.67;;;3.30;;
17153;SDS011;8692;52.164;7.558;2024-03-02T02:25:57;6.17;;;3.73;;
17153;SDS011;8692;52.164;7.558;2024-03-02T02:28:25;3.97;;;3.57;;
17153;SDS011;8692;52.164;7.558;2024-03-02T02:30:54;9.40;;;6.60;;
17153;SDS011;8692;52.164;7.558;2024-03-02T02:33:23;4.73;;;3.37;;
17153;SDS011;8692;52.164;7.558;2024-03-02T02:35:51;4.87;;;3.87;;
17153;SDS011;8692;52.164;7.558;2024-03-02T02:38:19;3.60;;;3.30;;
17153;SDS011;8692;52.164;7.558;2024-03-02T02:40:49;3.73;;;3.33;;
17153;SDS011;8692;52.164;7.558;2024-03-02T02:43:17;4.77;;;4.07;;
17153;SDS011;8692;52.164;7.558;2024-03-02T02:45:45;4.50;;;3.43;;
17153;SDS011;8692;52.164;7.558;2024-03-02T02:48:13;3.87;;;3.47;;
17153;SDS011;8692;52.164;7.558;2024-03-02T02:50:41;5.33;;;3.50;;
17153;SDS011;8692;52.164;7.558;2024-03-02T02:53:09;4.27;;;3.70;;
17153;SDS011;8692;52.164;7.558;2024-03-02T02:55:38;3.97;;;3.63;;
17153;SDS011;8692;52.164;7.558;2024-03-02T02:58:08;3.70;;;3.40;;
17153;SDS011;8692;52.164;7.558;2024-03-02T03:00:37;5.00;;;3.80;;
17153;SDS011;8692;52.164;7.558;2024-03-02T03:03:05;4.07;;;3.60;;
17153;SDS011;8692;52.164;7.558;2024-03-02T03:05:35;4.77;;;4.00;;
17153;SDS011;8692;52.164;7.558;2024-03-02T03:08:02;4.47;;;3.73;;
17153;SDS011;8692;52.164;7.558;2024-03-02T03:10:30;4.47;;;4.03;;
17153;SDS011;8692;52.164;7.558;2024-03-02T03:12:59;6.13;;;4.30;;
17153;SDS011;8692;52.164;7.558;2024-03-02T03:15:28;4.70;;;4.03;;
17153;SDS011;8692;52.164;7.558;2024-03-02T03:17:56;4.93;;;4.00;;
17153;SDS011;8692;52.164;7.558;2024-03-02T03:20:24;5.43;;;3.93;;
17153;SDS011;8692;52.164;7.558;2024-03-02T03:22:52;4.43;;;3.87;;
17153;SDS011;8692;52.164;7.558;2024-03-02T03:25:21;4.27;;;3.80;;
17153;SDS011;8692;52.164;7.558;2024-03-02T03:27:49;4.80;;;4.37;;
17153;SDS011;8692;52.164;7.558;2024-03-02T03:30:18;4.60;;;3.80;;
17153;SDS011;8692;52.164;7.558;2024-03-02T03:32:48;5.57;;;3.90;;
17153;SDS011;8692;52.164;7.558;2024-03-02T03:35:16;5.00;;;4.00;;
17153;SDS011;8692;52.164;7.558;2024-03-02T03:37:44;4.83;;;4.40;;
17153;SDS011;8692;52.164;7.558;2024-03-02T03:40:12;5.07;;;4.07;;
17153;SDS011;8692;52.164;7.558;2024-03-02T03:42:41;4.70;;;3.63;;
17153;SDS011;8692;52.164;7.558;2024-03-02T03:45:09;4.13;;;3.43;;
17153;SDS011;8692;52.164;7.558;2024-03-02T03:47:37;4.33;;;3.93;;
17153;SDS011;8692;52.164;7.558;2024-03-02T03:50:07;4.33;;;3.93;;
17153;SDS011;8692;52.164;7.558;2024-03-02T03:52:35;4.83;;;4.13;;
17153;SDS011;8692;52.164;7.558;2024-03-02T03:55:03;4.67;;;4.03;;
17153;SDS011;8692;52.164;7.558;2024-03-02T03:57:32;8.23;;;4.43;;
17153;SDS011;8692;52.164;7.558;2024-03-02T04:00:01;5.00;;;4.03;;
17153;SDS011;8692;52.164;7.558;2024-03-02T04:02:37;4.50;;;3.93;;
17153;SDS011;8692;52.164;7.558;2024-03-02T04:05:07;5.40;;;4.27;;
17153;SDS011;8692;52.164;7.558;2024-03-02T04:07:37;5.27;;;4.47;;
17153;SDS011;8692;52.164;7.558;2024-03-02T04:10:07;5.43;;;4.17;;
17153;SDS011;8692;52.164;7.558;2024-03-02T04:12:36;4.67;;;4.17;;
17153;SDS011;8692;52.164;7.558;2024-03-02T04:15:05;6.10;;;4.43;;
17153;SDS011;8692;52.164;7.558;2024-03-02T04:17:33;4.33;;;3.77;;
17153;SDS011;8692;52.164;7.558;2024-03-02T04:20:02;4.67;;;3.87;;
17153;SDS011;8692;52.164;7.558;2024-03-02T04:22:33;4.33;;;3.93;;
17153;SDS011;8692;52.164;7.558;2024-03-02T04:25:02;4.90;;;4.40;;
17153;SDS011;8692;52.164;7.558;2024-03-02T04:27:31;4.77;;;4.00;;
17153;SDS011;8692;52.164;7.558;2024-03-02T04:30:00;5.40;;;4.47;;
17153;SDS011;8692;52.164;7.558;2024-03-02T04:32:28;5.07;;;4.33;;
17153;SDS011;8692;52.164;7.558;2024-03-02T04:34:56;4.00;;;3.60;;
17153;SDS011;8692;52.164;7.558;2024-03-02T04:37:24;5.57;;;4.00;;
17153;SDS011;8692;52.164;7.558;2024-03-02T04:39:53;3.83;;;3.47;;
17153;SDS011;8692;52.164;7.558;2024-03-02T04:42:20;4.30;;;3.90;;
17153;SDS011;8692;52.164;7.558;2024-03-02T04:44:49;4.53;;;4.13;;
17153;SDS011;8692;52.164;7.558;2024-03-02T04:47:17;5.43;;;4.30;;
17153;SDS011;8692;52.164;7.558;2024-03-02T04:49:45;4.57;;;3.67;;
17153;SDS011;8692;52.164;7.558;2024-03-02T04:52:13;5.03;;;3.93;;
17153;SDS011;8692;52.164;7.558;2024-03-02T04:54:41;5.10;;;4.00;;
17153;SDS011;8692;52.164;7.558;2024-03-02T04:57:24;4.73;;;4.23;;
17153;SDS011;8692;52.164;7.558;2024-03-02T04:59:52;6.10;;;4.00;;
17153;SDS011;8692;52.164;7.558;2024-03-02T05:02:20;5.13;;;3.80;;
17153;SDS011;8692;52.164;7.558;2024-03-02T05:04:48;4.00;;;3.60;;
17153;SDS011;8692;52.164;7.558;2024-03-02T05:07:16;6.07;;;4.57;;
17153;SDS011;8692;52.164;7.558;2024-03-02T05:09:44;5.20;;;4.57;;
17153;SDS011;8692;52.164;7.558;2024-03-02T05:12:14;5.97;;;5.10;;
17153;SDS011;8692;52.164;7.558;2024-03-02T05:15:15;5.00;;;3.83;;
17153;SDS011;8692;52.164;7.558;2024-03-02T05:17:43;14.00;;;6.90;;
17153;SDS011;8692;52.164;7.558;2024-03-02T05:20:11;4.53;;;4.03;;
17153;SDS011;8692;52.164;7.558;2024-03-02T05:22:39;4.43;;;4.03;;
17153;SDS011;8692;52.164;7.558;2024-03-02T05:25:07;5.10;;;4.03;;
17153;SDS011;8692;52.164;7.558;2024-03-02T05:27:36;4.10;;;3.70;;
17153;SDS011;8692;52.164;7.558;2024-03-02T05:30:04;4.37;;;3.30;;
17153;SDS011;8692;52.164;7.558;2024-03-02T05:32:35;4.63;;;3.30;;
17153;SDS011;8692;52.164;7.558;2024-03-02T05:35:04;3.50;;;3.20;;
17153;SDS011;8692;52.164;7.558;2024-03-02T05:37:32;3.70;;;3.30;;
17153;SDS011;8692;52.164;7.558;2024-03-02T05:40:00;4.00;;;3.13;;
17153;SDS011;8692;52.164;7.558;2024-03-02T05:42:29;4.17;;;3.60;;
17153;SDS011;8692;52.164;7.558;2024-03-02T05:44:56;4.40;;;3.20;;
17153;SDS011;8692;52.164;7.558;2024-03-02T05:47:24;6.27;;;3.17;;
17153;SDS011;8692;52.164;7.558;2024-03-02T05:49:55;4.83;;;3.70;;
17153;SDS011;8692;52.164;7.558;2024-03-02T05:52:23;4.17;;;3.57;;
17153;SDS011;8692;52.164;7.558;2024-03-02T05:54:51;6.50;;;4.03;;
17153;SDS011;8692;52.164;7.558;2024-03-02T05:57:19;4.77;;;4.03;;
17153;SDS011;8692;52.164;7.558;2024-03-02T06:00:00;4.23;;;3.50;;
17153;SDS011;8692;52.164;7.558;2024-03-02T06:02:38;4.27;;;3.67;;
17153;SDS011;8692;52.164;7.558;2024-03-02T06:05:08;5.20;;;3.83;;
17153;SDS011;8692;52.164;7.558;2024-03-02T06:07:36;5.70;;;3.53;;
17153;SDS011;8692;52.164;7.558;2024-03-02T06:10:04;6.53;;;3.80;;
17153;SDS011;8692;52.164;7.558;2024-03-02T06:12:37;4.50;;;3.80;;
17153;SDS011;8692;52.164;7.558;2024-03-02T06:15:06;6.70;;;4.70;;
17153;SDS011;8692;52.164;7.558;2024-03-02T06:17:34;5.47;;;4.80;;
17153;SDS011;8692;52.164;7.558;2024-03-02T06:20:03;6.13;;;4.63;;
17153;SDS011;8692;52.164;7.558;2024-03-02T06:22:35;5.10;;;4.40;;
17153;SDS011;8692;52.164;7.558;2024-03-02T06:25:04;6.97;;;4.43;;
17153;SDS011;8692;52.164;7.558;2024-03-02T06:27:32;5.03;;;4.53;;
17153;SDS011;8692;52.164;7.558;2024-03-02T06:29:59;7.37;;;5.10;;
17153;SDS011;8692;52.164;7.558;2024-03-02T06:32:27;4.87;;;4.37;;
17153;SDS011;8692;52.164;7.558;2024-03-02T06:34:55;5.87;;;4.17;;
17153;SDS011;8692;52.164;7.558;2024-03-02T06:37:23;6.77;;;4.33;;
17153;SDS011;8692;52.164;7.558;2024-03-02T06:39:52;5.53;;;4.70;;
17153;SDS011;8692;52.164;7.558;2024-03-02T06:42:20;4.90;;;4.40;;
17153;SDS011;8692;52.164;7.558;2024-03-02T06:44:48;5.73;;;3.80;;
17153;SDS011;8692;52.164;7.558;2024-03-02T06:47:16;6.17;;;4.27;;
17153;SDS011;8692;52.164;7.558;2024-03-02T06:49:46;5.20;;;4.00;;
17153;SDS011;8692;52.164;7.558;2024-03-02T06:52:14;4.97;;;4.47;;
17153;SDS011;8692;52.164;7.558;2024-03-02T06:54:42;4.93;;;4.20;;
17153;SDS011;8692;52.164;7.558;2024-03-02T06:57:11;6.87;;;4.37;;
17153;SDS011;8692;52.164;7.558;2024-03-02T06:59:40;4.83;;;3.77;;
17153;SDS011;8692;52.164;7.558;2024-03-02T07:02:08;4.07;;;3.67;;
17153;SDS011;8692;52.164;7.558;2024-03-02T07:04:36;5.97;;;4.37;;
17153;SDS011;8692;52.164;7.558;2024-03-02T07:07:04;6.23;;;4.10;;
17153;SDS011;8692;52.164;7.558;2024-03-02T07:09:32;4.80;;;3.73;;
17153;SDS011;8692;52.164;7.558;2024-03-02T07:12:00;7.47;;;4.60;;
17153;SDS011;8692;52.164;7.558;2024-03-02T07:14:30;5.90;;;4.53;;
17153;SDS011;8692;52.164;7.558;2024-03-02T07:17:12;8.17;;;5.10;;
17153;SDS011;8692;52.164;7.558;2024-03-02T07:19:40;5.77;;;5.17;;
17153;SDS011;8692;52.164;7.558;2024-03-02T07:22:08;5.57;;;4.97;;
17153;SDS011;8692;52.164;7.558;2024-03-02T07:24:39;5.27;;;4.77;;
17153;SDS011;8692;52.164;7.558;2024-03-02T07:27:08;5.37;;;4.83;;
17153;SDS011;8692;52.164;7.558;2024-03-02T07:29:38;7.50;;;5.27;;
17153;SDS011;8692;52.164;7.558;2024-03-02T07:32:07;7.73;;;5.20;;
17153;SDS011;8692;52.164;7.558;2024-03-02T07:34:36;6.70;;;5.30;;
17153;SDS011;8692;52.164;7.558;2024-03-02T07:37:04;6.43;;;5.70;;
17153;SDS011;8692;52.164;7.558;2024-03-02T07:39:33;7.10;;;5.33;;
17153;SDS011;8692;52.164;7.558;2024-03-02T07:42:01;11.13;;;6.03;;
17153;SDS011;8692;52.164;7.558;2024-03-02T07:44:29;6.50;;;4.90;;
17153;SDS011;8692;52.164;7.558;2024-03-02T07:46:58;7.03;;;5.07;;
17153;SDS011;8692;52.164;7.558;2024-03-02T07:49:26;6.50;;;5.70;;
17153;SDS011;8692;52.164;7.558;2024-03-02T07:51:54;7.67;;;5.50;;
17153;SDS011;8692;52.164;7.558;2024-03-02T07:54:22;7.00;;;5.37;;
17153;SDS011;8692;52.164;7.558;2024-03-02T07:56:50;5.53;;;5.00;;
17153;SDS011;8692;52.164;7.558;2024-03-02T07:59:19;6.73;;;5.37;;
17153;SDS011;8692;52.164;7.558;2024-03-02T08:01:48;7.33;;;5.67;;
17153;SDS011;8692;52.164;7.558;2024-03-02T08:04:19;6.73;;;4.77;;
17153;SDS011;8692;52.164;7.558;2024-03-02T08:06:46;6.80;;;5.20;;
17153;SDS011;8692;52.164;7.558;2024-03-02T08:09:15;5.40;;;4.67;;
17153;SDS011;8692;52.164;7.558;2024-03-02T08:11:43;6.60;;;4.93;;
17153;SDS011;8692;52.164;7.558;2024-03-02T08:14:11;5.70;;;5.07;;
17153;SDS011;8692;52.164;7.558;2024-03-02T08:16:39;6.33;;;4.63;;
17153;SDS011;8692;52.164;7.558;2024-03-02T08:19:07;7.67;;;4.53;;
17153;SDS011;8692;52.164;7.558;2024-03-02T08:21:37;4.97;;;4.33;;
17153;SDS011;8692;52.164;7.558;2024-03-02T08:24:05;6.33;;;3.80;;
17153;SDS011;8692;52.164;7.558;2024-03-02T08:26:34;5.27;;;4.40;;
17153;SDS011;8692;52.164;7.558;2024-03-02T08:29:02;8.10;;;3.93;;
17153;SDS011;8692;52.164;7.558;2024-03-02T08:31:30;5.53;;;4.27;;
17153;SDS011;8692;52.164;7.558;2024-03-02T08:33:58;5.33;;;4.17;;
17153;SDS011;8692;52.164;7.558;2024-03-02T08:36:26;4.07;;;3.47;;
17153;SDS011;8692;52.164;7.558;2024-03-02T08:38:56;4.60;;;3.60;;
17153;SDS011;8692;52.164;7.558;2024-03-02T08:41:24;5.23;;;3.70;;
17153;SDS011;8692;52.164;7.558;2024-03-02T08:43:52;5.30;;;4.20;;
17153;SDS011;8692;52.164;7.558;2024-03-02T08:46:20;3.97;;;3.53;;
17153;SDS011;8692;52.164;7.558;2024-03-02T08:48:48;4.57;;;3.70;;
17153;SDS011;8692;52.164;7.558;2024-03-02T08:51:16;7.70;;;4.27;;
17153;SDS011;8692;52.164;7.558;2024-03-02T08:53:44;4.93;;;4.07;;
17153;SDS011;8692;52.164;7.558;2024-03-02T08:56:14;5.33;;;3.60;;
17153;SDS011;8692;52.164;7.558;2024-03-02T08:58:42;4.47;;;3.50;;
17153;SDS011;8692;52.164;7.558;2024-03-02T09:01:11;4.17;;;3.30;;
17153;SDS011;8692;52.164;7.558;2024-03-02T09:03:39;5.20;;;3.50;;
17153;SDS011;8692;52.164;7.558;2024-03-02T09:06:07;3.53;;;3.20;;
17153;SDS011;8692;52.164;7.558;2024-03-02T09:08:35;4.50;;;3.43;;
17153;SDS011;8692;52.164;7.558;2024-03-02T09:11:03;4.43;;;3.70;;
17153;SDS011;8692;52.164;7.558;2024-03-02T09:13:33;6.93;;;2.97;;
17153;SDS011;8692;52.164;7.558;2024-03-02T09:16:01;3.50;;;3.20;;
17153;SDS011;8692;52.164;7.558;2024-03-02T09:18:29;4.73;;;3.73;;
17153;SDS011;8692;52.164;7.558;2024-03-02T09:20:57;5.73;;;3.60;;
17153;SDS011;8692;52.164;7.558;2024-03-02T09:23:25;4.43;;;3.00;;
17153;SDS011;8692;52.164;7.558;2024-03-02T09:25:53;4.53;;;2.67;;
17153;SDS011;8692;52.164;7.558;2024-03-02T09:28:21;3.83;;;2.50;;
17153;SDS011;8692;52.164;7.558;2024-03-02T09:30:49;3.53;;;1.80;;
17153;SDS011;8692;52.164;7.558;2024-03-02T09:33:17;3.17;;;2.27;;
17153;SDS011;8692;52.164;7.558;2024-03-02T09:35:46;3.03;;;2.23;;
17153;SDS011;8692;52.164;7.558;2024-03-02T09:38:19;3.17;;;2.20;;
17153;SDS011;8692;52.164;7.558;2024-03-02T09:40:48;3.13;;;2.27;;
17153;SDS011;8692;52.164;7.558;2024-03-02T09:43:16;1.87;;;1.73;;
17153;SDS011;8692;52.164;7.558;2024-03-02T09:45:44;3.30;;;2.27;;
17153;SDS011;8692;52.164;7.558;2024-03-02T09:48:14;3.87;;;1.67;;
17153;SDS011;8692;52.164;7.558;2024-03-02T09:50:44;2.33;;;1.63;;
17153;SDS011;8692;52.164;7.558;2024-03-02T09:53:13;2.87;;;1.60;;
17153;SDS011;8692;52.164;7.558;2024-03-02T09:55:45;2.73;;;2.07;;
17153;SDS011;8692;52.164;7.558;2024-03-02T09:58:13;2.37;;;1.70;;
17153;SDS011;8692;52.164;7.558;2024-03-02T10:00:42;2.53;;;1.93;;
17153;SDS011;8692;52.164;7.558;2024-03-02T10:03:11;2.27;;;1.80;;
17153;SDS011;8692;52.164;7.558;2024-03-02T10:05:41;2.43;;;1.90;;
17153;SDS011;8692;52.164;7.558;2024-03-02T10:08:10;4.07;;;1.90;;
17153;SDS011;8692;52.164;7.558;2024-03-02T10:10:38;6.23;;;2.23;;
17153;SDS011;8692;52.164;7.558;2024-03-02T10:13:08;2.93;;;2.10;;
17153;SDS011;8692;52.164;7.558;2024-03-02T10:15:38;3.83;;;2.33;;
17153;SDS011;8692;52.164;7.558;2024-03-02T10:18:08;2.13;;;1.63;;
17153;SDS011;8692;52.164;7.558;2024-03-02T10:20:38;2.67;;;1.80;;
17153;SDS011;8692;52.164;7.558;2024-03-02T10:23:11;2.37;;;1.60;;
17153;SDS011;8692;52.164;7.558;2024-03-02T10:25:39;2.47;;;1.73;;
17153;SDS011;8692;52.164;7.558;2024-03-02T10:28:22;2.53;;;1.70;;
17153;SDS011;8692;52.164;7.558;2024-03-02T10:30:51;2.67;;;1.70;;
17153;SDS011;8692;52.164;7.558;2024-03-02T10:33:20;3.13;;;1.50;;
17153;SDS011;8692;52.164;7.558;2024-03-02T10:35:48;2.33;;;2.03;;
17153;SDS011;8692;52.164;7.558;2024-03-02T10:38:18;2.00;;;1.70;;
17153;SDS011;8692;52.164;7.558;2024-03-02T10:40:47;3.17;;;1.97;;
17153;SDS011;8692;52.164;7.558;2024-03-02T10:43:15;3.97;;;2.10;;
17153;SDS011;8692;52.164;7.558;2024-03-02T10:45:46;3.63;;;2.00;;
17153;SDS011;8692;52.164;7.558;2024-03-02T10:48:17;2.37;;;1.53;;
17153;SDS011;8692;52.164;7.558;2024-03-02T10:50:45;2.63;;;1.77;;
17153;SDS011;8692;52.164;7.558;2024-03-02T10:53:13;3.30;;;1.97;;
17153;SDS011;8692;52.164;7.558;2024-03-02T10:55:43;2.93;;;1.90;;
17153;SDS011;8692;52.164;7.558;2024-03-02T10:58:12;3.17;;;1.90;;
17153;SDS011;8692;52.164;7.558;2024-03-02T11:00:41;2.97;;;1.70;;
17153;SDS011;8692;52.164;7.558;2024-03-02T11:03:12;4.07;;;1.80;;
17153;SDS011;8692;52.164;7.558;2024-03-02T11:05:43;2.37;;;1.93;;
17153;SDS011;8692;52.164;7.558;2024-03-02T11:08:12;2.30;;;1.70;;
17153;SDS011;8692;52.164;7.558;2024-03-02T11:10:47;2.90;;;1.73;;
17153;SDS011;8692;52.164;7.558;2024-03-02T11:13:20;2.73;;;2.00;;
17153;SDS011;8692;52.164;7.558;2024-03-02T11:15:52;2.80;;;2.00;;
17153;SDS011;8692;52.164;7.558;2024-03-02T11:18:23;3.63;;;1.93;;
17153;SDS011;8692;52.164;7.558;2024-03-02T11:20:52;3.40;;;1.70;;
17153;SDS011;8692;52.164;7.558;2024-03-02T11:23:21;2.13;;;1.63;;
17153;SDS011;8692;52.164;7.558;2024-03-02T11:28:47;2.00;;;1.53;;
17153;SDS011;8692;52.164;7.558;2024-03-02T11:31:15;3.20;;;1.80;;
17153;SDS011;8692;52.164;7.558;2024-03-02T11:33:43;2.87;;;1.73;;
17153;SDS011;8692;52.164;7.558;2024-03-02T11:36:11;6.77;;;1.73;;
17153;SDS011;8692;52.164;7.558;2024-03-02T11:38:39;4.37;;;1.80;;
17153;SDS011;8692;52.164;7.558;2024-03-02T11:41:12;3.93;;;1.67;;
17153;SDS011;8692;52.164;7.558;2024-03-02T11:43:42;2.17;;;1.70;;
17153;SDS011;8692;52.164;7.558;2024-03-02T11:46:11;1.83;;;1.63;;
17153;SDS011;8692;52.164;7.558;2024-03-02T11:48:40;3.77;;;1.80;;
17153;SDS011;8692;52.164;7.558;2024-03-02T11:51:08;9.23;;;2.07;;
17153;SDS011;8692;52.164;7.558;2024-03-02T11:53:38;3.33;;;1.50;;
17153;SDS011;8692;52.164;7.558;2024-03-02T11:56:07;5.80;;;2.40;;
17153;SDS011;8692;52.164;7.558;2024-03-02T11:58:38;3.37;;;1.70;;
17153;SDS011;8692;52.164;7.558;2024-03-02T12:01:09;2.77;;;1.80;;
17153;SDS011;8692;52.164;7.558;2024-03-02T12:03:38;1.40;;;1.23;;
17153;SDS011;8692;52.164;7.558;2024-03-02T12:06:06;2.37;;;1.30;;
17153;SDS011;8692;52.164;7.558;2024-03-02T12:08:35;3.47;;;1.27;;
17153;SDS011;8692;52.164;7.558;2024-03-02T12:11:04;2.27;;;1.77;;
17153;SDS011;8692;52.164;7.558;2024-03-02T12:13:33;2.13;;;1.50;;
17153;SDS011;8692;52.164;7.558;2024-03-02T12:16:01;3.93;;;1.60;;
17153;SDS011;8692;52.164;7.558;2024-03-02T12:18:31;3.73;;;1.50;;
17153;SDS011;8692;52.164;7.558;2024-03-02T12:20:59;2.20;;;1.57;;
17153;SDS011;8692;52.164;7.558;2024-03-02T12:23:29;4.07;;;1.33;;
17153;SDS011;8692;52.164;7.558;2024-03-02T12:25:57;3.33;;;1.47;;
17153;SDS011;8692;52.164;7.558;2024-03-02T12:28:25;1.50;;;1.30;;
17153;SDS011;8692;52.164;7.558;2024-03-02T12:30:54;1.73;;;1.50;;
17153;SDS011;8692;52.164;7.558;2024-03-02T12:33:22;1.43;;;1.33;;
17153;SDS011;8692;52.164;7.558;2024-03-02T12:35:52;3.13;;;1.50;;
17153;SDS011;8692;52.164;7.558;2024-03-02T12:38:20;2.17;;;1.70;;
17153;SDS011;8692;52.164;7.558;2024-03-02T12:40:51;3.03;;;1.90;;
17153;SDS011;8692;52.164;7.558;2024-03-02T12:43:19;1.90;;;1.60;;
17153;SDS011;8692;52.164;7.558;2024-03-02T12:45:49;1.83;;;1.30;;
17153;SDS011;8692;52.164;7.558;2024-03-02T12:48:17;4.77;;;1.37;;
17153;SDS011;8692;52.164;7.558;2024-03-02T12:50:45;1.87;;;1.30;;
17153;SDS011;8692;52.164;7.558;2024-03-02T12:53:16;3.37;;;1.77;;
17153;SDS011;8692;52.164;7.558;2024-03-02T12:55:44;3.47;;;2.23;;
17153;SDS011;8692;52.164;7.558;2024-03-02T12:58:19;1.30;;;1.20;;
17153;SDS011;8692;52.164;7.558;2024-03-02T13:00:48;3.37;;;1.20;;
17153;SDS011;8692;52.164;7.558;2024-03-02T13:03:17;1.23;;;0.83;;
17153;SDS011;8692;52.164;7.558;2024-03-02T13:05:50;1.73;;;1.00;;
17153;SDS011;8692;52.164;7.558;2024-03-02T13:08:21;2.60;;;1.00;;
17153;SDS011;8692;52.164;7.558;2024-03-02T13:10:49;1.40;;;1.00;;
17153;SDS011;8692;52.164;7.558;2024-03-02T13:13:17;1.50;;;1.00;;
17153;SDS011;8692;52.164;7.558;2024-03-02T13:15:45;1.63;;;0.73;;
17153;SDS011;8692;52.164;7.558;2024-03-02T13:18:13;0.97;;;0.87;;
17153;SDS011;8692;52.164;7.558;2024-03-02T13:20:41;1.03;;;0.90;;
17153;SDS011;8692;52.164;7.558;2024-03-02T13:23:09;2.93;;;0.90;;
17153;SDS011;8692;52.164;7.558;2024-03-02T13:25:39;3.97;;;1.10;;
17153;SDS011;8692;52.164;7.558;2024-03-02T13:28:07;2.40;;;1.00;;
17153;SDS011;8692;52.164;7.558;2024-03-02T13:30:35;1.43;;;0.90;;
17153;SDS011;8692;52.164;7.558;2024-03-02T13:33:03;1.10;;;1.00;;
17153;SDS011;8692;52.164;7.558;2024-03-02T13:35:32;1.30;;;0.90;;
17153;SDS011;8692;52.164;7.558;2024-03-02T13:38:00;1.33;;;1.00;;
17153;SDS011;8692;52.164;7.558;2024-03-02T13:40:28;1.00;;;0.90;;
17153;SDS011;8692;52.164;7.558;2024-03-02T13:43:03;1.30;;;1.03;;
17153;SDS011;8692;52.164;7.558;2024-03-02T13:45:31;1.23;;;1.00;;
17153;SDS011;8692;52.164;7.558;2024-03-02T13:48:00;1.50;;;1.30;;
17153;SDS011;8692;52.164;7.558;2024-03-02T13:50:29;1.13;;;1.00;;
17153;SDS011;8692;52.164;7.558;2024-03-02T13:52:58;1.30;;;1.10;;
17153;SDS011;8692;52.164;7.558;2024-03-02T13:55:27;1.10;;;0.90;;
17153;SDS011;8692;52.164;7.558;2024-03-02T13:57:55;1.47;;;0.90;;
17153;SDS011;8692;52.164;7.558;2024-03-02T14:00:24;1.53;;;0.87;;
17153;SDS011;8692;52.164;7.558;2024-03-02T14:02:52;1.73;;;1.00;;
17153;SDS011;8692;52.164;7.558;2024-03-02T14:05:21;1.40;;;0.80;;
17153;SDS011;8692;52.164;7.558;2024-03-02T14:07:49;1.03;;;0.93;;
17153;SDS011;8692;52.164;7.558;2024-03-02T14:10:17;1.00;;;0.90;;
17153;SDS011;8692;52.164;7.558;2024-03-02T14:12:48;1.23;;;1.00;;
17153;SDS011;8692;52.164;7.558;2024-03-02T14:15:16;0.70;;;0.70;;
17153;SDS011;8692;52.164;7.558;2024-03-02T14:17:48;1.93;;;1.00;;
17153;SDS011;8692;52.164;7.558;2024-03-02T14:20:16;3.83;;;1.20;;
17153;SDS011;8692;52.164;7.558;2024-03-02T14:22:48;1.00;;;0.90;;
17153;SDS011;8692;52.164;7.558;2024-03-02T14:25:16;1.83;;;1.00;;
17153;SDS011;8692;52.164;7.558;2024-03-02T14:27:45;1.60;;;0.90;;
17153;SDS011;8692;52.164;7.558;2024-03-02T14:30:33;2.27;;;0.80;;
17153;SDS011;8692;52.164;7.558;2024-03-02T14:33:02;0.80;;;0.80;;
17153;SDS011;8692;52.164;7.558;2024-03-02T14:35:31;0.70;;;0.70;;
17153;SDS011;8692;52.164;7.558;2024-03-02T14:37:59;1.50;;;0.70;;
17153;SDS011;8692;52.164;7.558;2024-03-02T14:40:27;0.77;;;0.77;;
17153;SDS011;8692;52.164;7.558;2024-03-02T14:42:56;1.67;;;1.00;;
17153;SDS011;8692;52.164;7.558;2024-03-02T14:45:24;1.67;;;0.73;;
17153;SDS011;8692;52.164;7.558;2024-03-02T14:47:52;1.67;;;0.77;;
17153;SDS011;8692;52.164;7.558;2024-03-02T14:50:21;1.07;;;0.90;;
17153;SDS011;8692;52.164;7.558;2024-03-02T14:52:50;1.53;;;0.90;;
17153;SDS011;8692;52.164;7.558;2024-03-02T14:55:18;1.60;;;0.90;;
17153;SDS011;8692;52.164;7.558;2024-03-02T14:57:46;2.57;;;1.07;;
17153;SDS011;8692;52.164;7.558;2024-03-02T15:00:14;2.03;;;1.13;;
17153;SDS011;8692;52.164;7.558;2024-03-02T15:02:42;1.10;;;1.00;;
17153;SDS011;8692;52.164;7.558;2024-03-02T15:05:10;0.87;;;0.87;;
17153;SDS011;8692;52.164;7.558;2024-03-02T15:07:40;1.07;;;0.90;;
17153;SDS011;8692;52.164;7.558;2024-03-02T15:10:08;1.10;;;1.00;;
17153;SDS011;8692;52.164;7.558;2024-03-02T15:12:37;1.10;;;1.00;;
17153;SDS011;8692;52.164;7.558;2024-03-02T15:15:05;1.17;;;1.03;;